sensor_id;sensor_type;location;lat;lon;timestamp;P1;durP1;ratioP1;P2;durP2;ratioP2
33413;SDS011;60055;41.884;12.534;2022-09-01T00:01:40;5.72;;;1.85;;
33413;SDS011;60055;41.884;12.534;2022-09-01T00:04:08;9.30;;;1.80;;
33413;SDS011;60055;41.884;12.534;2022-09-01T00:06:36;9.60;;;3.33;;
33413;SDS011;60055;41.884;12.534;2022-09-01T00:09:06;9.52;;;4.30;;
33413;SDS011;60055;41.884;12.534;2022-09-01T00:11:34;7.18;;;1.98;;
33413;SDS011;60055;41.884;12.534;2022-09-01T00:14:02;11.75;;;2.22;;
33413;SDS011;60055;41.884;12.534;2022-09-01T00:16:30;5.82;;;2.95;;
33413;SDS011;60055;41.884;12.534;2022-09-01T00:18:56;6.45;;;2.03;;
33413;SDS011;60055;41.884;12.534;2022-09-01T00:21:27;7.47;;;2.60;;
33413;SDS011;60055;41.884;12.534;2022-09-01T00:24:02;8.95;;;2.95;;
33413;SDS011;60055;41.884;12.534;2022-09-01T00:26:28;10.45;;;3.45;;
33413;SDS011;60055;41.884;12.534;2022-09-01T00:28:54;9.77;;;3.75;;
33413;SDS011;60055;41.884;12.534;2022-09-01T00:31:21;8.50;;;3.67;;
33413;SDS011;60055;41.884;12.534;2022-09-01T00:33:47;7.78;;;3.00;;
33413;SDS011;60055;41.884;12.534;2022-09-01T00:36:14;9.88;;;3.40;;
33413;SDS011;60055;41.884;12.534;2022-09-01T00:38:40;7.50;;;3.40;;
33413;SDS011;60055;41.884;12.534;2022-09-01T00:41:06;7.20;;;2.75;;
33413;SDS011;60055;41.884;12.534;2022-09-01T00:43:43;8.48;;;2.85;;
33413;SDS011;60055;41.884;12.534;2022-09-01T00:46:10;7.50;;;2.78;;
33413;SDS011;60055;41.884;12.534;2022-09-01T00:48:41;5.97;;;2.38;;
33413;SDS011;60055;41.884;12.534;2022-09-01T00:51:09;8.45;;;2.50;;
33413;SDS011;60055;41.884;12.534;2022-09-01T00:53:36;6.13;;;2.22;;
33413;SDS011;60055;41.884;12.534;2022-09-01T00:56:05;8.23;;;2.47;;
33413;SDS011;60055;41.884;12.534;2022-09-01T00:58:32;10.32;;;2.65;;
33413;SDS011;60055;41.884;12.534;2022-09-01T01:01:00;6.03;;;2.28;;
33413;SDS011;60055;41.884;12.534;2022-09-01T01:03:26;8.70;;;2.50;;
33413;SDS011;60055;41.884;12.534;2022-09-01T01:05:54;6.75;;;2.40;;
33413;SDS011;60055;41.884;12.534;2022-09-01T01:08:26;11.10;;;2.58;;
33413;SDS011;60055;41.884;12.534;2022-09-01T01:11:01;8.27;;;2.80;;
33413;SDS011;60055;41.884;12.534;2022-09-01T01:13:28;6.68;;;2.38;;
33413;SDS011;60055;41.884;12.534;2022-09-01T01:15:56;14.00;;;3.03;;
33413;SDS011;60055;41.884;12.534;2022-09-01T01:18:24;11.50;;;4.70;;
33413;SDS011;60055;41.884;12.534;2022-09-01T01:21:03;9.77;;;3.58;;
33413;SDS011;60055;41.884;12.534;2022-09-01T01:24:01;12.65;;;2.50;;
33413;SDS011;60055;41.884;12.534;2022-09-01T01:26:44;9.27;;;2.45;;
33413;SDS011;60055;41.884;12.534;2022-09-01T01:29:11;8.70;;;2.60;;
33413;SDS011;60055;41.884;12.534;2022-09-01T01:31:37;7.57;;;2.45;;
33413;SDS011;60055;41.884;12.534;2022-09-01T01:34:03;8.13;;;2.65;;
33413;SDS011;60055;41.884;12.534;2022-09-01T01:36:33;11.43;;;2.53;;
33413;SDS011;60055;41.884;12.534;2022-09-01T01:39:08;4.65;;;2.30;;
33413;SDS011;60055;41.884;12.534;2022-09-01T01:41:37;9.13;;;2.67;;
33413;SDS011;60055;41.884;12.534;2022-09-01T01:44:06;11.50;;;2.65;;
33413;SDS011;60055;41.884;12.534;2022-09-01T01:46:33;9.10;;;2.83;;
33413;SDS011;60055;41.884;12.534;2022-09-01T01:49:00;6.85;;;2.08;;
33413;SDS011;60055;41.884;12.534;2022-09-01T01:51:28;12.40;;;2.60;;
33413;SDS011;60055;41.884;12.534;2022-09-01T01:53:57;7.35;;;2.42;;
33413;SDS011;60055;41.884;12.534;2022-09-01T01:56:25;8.75;;;2.10;;
33413;SDS011;60055;41.884;12.534;2022-09-01T01:58:52;6.50;;;1.98;;
33413;SDS011;60055;41.884;12.534;2022-09-01T02:01:20;7.07;;;2.03;;
33413;SDS011;60055;41.884;12.534;2022-09-01T02:03:49;8.05;;;2.00;;
33413;SDS011;60055;41.884;12.534;2022-09-01T02:06:18;9.18;;;2.10;;
33413;SDS011;60055;41.884;12.534;2022-09-01T02:08:45;8.77;;;2.30;;
33413;SDS011;60055;41.884;12.534;2022-09-01T02:11:11;10.10;;;2.63;;
33413;SDS011;60055;41.884;12.534;2022-09-01T02:13:40;6.72;;;2.30;;
33413;SDS011;60055;41.884;12.534;2022-09-01T02:16:07;8.32;;;2.13;;
33413;SDS011;60055;41.884;12.534;2022-09-01T02:18:37;5.10;;;2.17;;
33413;SDS011;60055;41.884;12.534;2022-09-01T02:21:07;6.45;;;2.20;;
33413;SDS011;60055;41.884;12.534;2022-09-01T02:23:38;3.80;;;1.60;;
33413;SDS011;60055;41.884;12.534;2022-09-01T02:26:05;4.80;;;2.05;;
33413;SDS011;60055;41.884;12.534;2022-09-01T02:28:35;5.78;;;1.85;;
33413;SDS011;60055;41.884;12.534;2022-09-01T02:31:06;5.68;;;1.75;;
33413;SDS011;60055;41.884;12.534;2022-09-01T02:33:34;5.50;;;1.90;;
33413;SDS011;60055;41.884;12.534;2022-09-01T02:36:01;6.85;;;1.70;;
33413;SDS011;60055;41.884;12.534;2022-09-01T02:38:30;5.13;;;2.10;;
33413;SDS011;60055;41.884;12.534;2022-09-01T02:40:59;5.30;;;2.15;;
33413;SDS011;60055;41.884;12.534;2022-09-01T02:43:27;6.30;;;1.98;;
33413;SDS011;60055;41.884;12.534;2022-09-01T02:45:57;4.38;;;1.90;;
33413;SDS011;60055;41.884;12.534;2022-09-01T02:48:29;7.80;;;2.17;;
33413;SDS011;60055;41.884;12.534;2022-09-01T02:51:14;6.45;;;1.90;;
33413;SDS011;60055;41.884;12.534;2022-09-01T02:53:42;7.32;;;2.28;;
33413;SDS011;60055;41.884;12.534;2022-09-01T02:56:10;8.25;;;2.15;;
33413;SDS011;60055;41.884;12.534;2022-09-01T02:58:38;8.43;;;2.40;;
33413;SDS011;60055;41.884;12.534;2022-09-01T03:01:11;8.10;;;2.10;;
33413;SDS011;60055;41.884;12.534;2022-09-01T03:03:41;5.40;;;2.53;;
33413;SDS011;60055;41.884;12.534;2022-09-01T03:06:06;10.73;;;2.28;;
33413;SDS011;60055;41.884;12.534;2022-09-01T03:08:33;9.73;;;2.70;;
33413;SDS011;60055;41.884;12.534;2022-09-01T03:11:00;6.80;;;2.50;;
33413;SDS011;60055;41.884;12.534;2022-09-01T03:13:27;6.30;;;2.58;;
33413;SDS011;60055;41.884;12.534;2022-09-01T03:15:53;7.10;;;2.58;;
33413;SDS011;60055;41.884;12.534;2022-09-01T03:18:19;6.60;;;2.47;;
33413;SDS011;60055;41.884;12.534;2022-09-01T03:20:45;7.50;;;2.17;;
33413;SDS011;60055;41.884;12.534;2022-09-01T03:23:13;7.65;;;2.50;;
33413;SDS011;60055;41.884;12.534;2022-09-01T03:25:40;7.53;;;2.38;;
33413;SDS011;60055;41.884;12.534;2022-09-01T03:28:08;9.52;;;2.35;;
33413;SDS011;60055;41.884;12.534;2022-09-01T03:30:37;8.82;;;2.90;;
33413;SDS011;60055;41.884;12.534;2022-09-01T03:33:08;10.57;;;2.60;;
33413;SDS011;60055;41.884;12.534;2022-09-01T03:35:34;8.07;;;2.60;;
33413;SDS011;60055;41.884;12.534;2022-09-01T03:38:00;5.13;;;2.10;;
33413;SDS011;60055;41.884;12.534;2022-09-01T03:40:30;7.60;;;2.40;;
33413;SDS011;60055;41.884;12.534;2022-09-01T03:42:58;9.93;;;3.03;;
33413;SDS011;60055;41.884;12.534;2022-09-01T03:45:24;9.27;;;2.88;;
33413;SDS011;60055;41.884;12.534;2022-09-01T03:47:53;5.40;;;2.40;;
33413;SDS011;60055;41.884;12.534;2022-09-01T03:50:21;6.75;;;2.60;;
33413;SDS011;60055;41.884;12.534;2022-09-01T03:52:57;13.68;;;3.00;;
33413;SDS011;60055;41.884;12.534;2022-09-01T03:55:26;8.18;;;2.30;;
33413;SDS011;60055;41.884;12.534;2022-09-01T03:57:59;6.10;;;2.20;;
33413;SDS011;60055;41.884;12.534;2022-09-01T04:00:30;6.05;;;2.25;;
33413;SDS011;60055;41.884;12.534;2022-09-01T04:03:00;8.85;;;2.33;;
33413;SDS011;60055;41.884;12.534;2022-09-01T04:05:29;6.25;;;2.20;;
33413;SDS011;60055;41.884;12.534;2022-09-01T04:07:58;6.28;;;2.67;;
33413;SDS011;60055;41.884;12.534;2022-09-01T04:10:32;5.88;;;2.30;;
33413;SDS011;60055;41.884;12.534;2022-09-01T04:12:59;8.30;;;2.60;;
33413;SDS011;60055;41.884;12.534;2022-09-01T04:15:26;8.43;;;2.38;;
33413;SDS011;60055;41.884;12.534;2022-09-01T04:17:53;6.25;;;2.40;;
33413;SDS011;60055;41.884;12.534;2022-09-01T04:20:33;7.40;;;2.08;;
33413;SDS011;60055;41.884;12.534;2022-09-01T04:23:12;8.27;;;2.67;;
33413;SDS011;60055;41.884;12.534;2022-09-01T04:25:47;9.95;;;2.70;;
33413;SDS011;60055;41.884;12.534;2022-09-01T04:28:14;6.65;;;2.38;;
33413;SDS011;60055;41.884;12.534;2022-09-01T04:30:56;8.00;;;2.50;;
33413;SDS011;60055;41.884;12.534;2022-09-01T04:33:24;7.78;;;2.40;;
33413;SDS011;60055;41.884;12.534;2022-09-01T04:35:51;11.80;;;2.60;;
33413;SDS011;60055;41.884;12.534;2022-09-01T04:38:20;8.82;;;2.35;;
33413;SDS011;60055;41.884;12.534;2022-09-01T04:40:48;12.43;;;2.80;;
33413;SDS011;60055;41.884;12.534;2022-09-01T04:43:15;11.55;;;2.22;;
33413;SDS011;60055;41.884;12.534;2022-09-01T04:45:41;11.85;;;2.38;;
33413;SDS011;60055;41.884;12.534;2022-09-01T04:48:07;6.40;;;2.03;;
33413;SDS011;60055;41.884;12.534;2022-09-01T04:50:33;5.60;;;2.15;;
33413;SDS011;60055;41.884;12.534;2022-09-01T04:52:59;13.10;;;1.98;;
33413;SDS011;60055;41.884;12.534;2022-09-01T04:55:27;6.07;;;1.95;;
33413;SDS011;60055;41.884;12.534;2022-09-01T04:57:55;8.10;;;2.05;;
33413;SDS011;60055;41.884;12.534;2022-09-01T05:00:23;7.95;;;2.30;;
33413;SDS011;60055;41.884;12.534;2022-09-01T05:02:51;7.88;;;2.50;;
33413;SDS011;60055;41.884;12.534;2022-09-01T05:05:27;7.07;;;1.92;;
33413;SDS011;60055;41.884;12.534;2022-09-01T05:08:04;4.65;;;2.10;;
33413;SDS011;60055;41.884;12.534;2022-09-01T05:10:31;6.82;;;1.92;;
33413;SDS011;60055;41.884;12.534;2022-09-01T05:13:01;7.07;;;2.03;;
33413;SDS011;60055;41.884;12.534;2022-09-01T05:15:33;6.95;;;2.40;;
33413;SDS011;60055;41.884;12.534;2022-09-01T05:18:19;12.32;;;2.40;;
33413;SDS011;60055;41.884;12.534;2022-09-01T05:20:49;9.32;;;3.05;;
33413;SDS011;60055;41.884;12.534;2022-09-01T05:23:16;8.63;;;2.60;;
33413;SDS011;60055;41.884;12.534;2022-09-01T05:25:44;8.70;;;2.40;;
33413;SDS011;60055;41.884;12.534;2022-09-01T05:28:13;7.97;;;2.47;;
33413;SDS011;60055;41.884;12.534;2022-09-01T05:30:42;10.10;;;3.25;;
33413;SDS011;60055;41.884;12.534;2022-09-01T05:33:10;7.95;;;2.95;;
33413;SDS011;60055;41.884;12.534;2022-09-01T05:35:39;5.50;;;2.70;;
33413;SDS011;60055;41.884;12.534;2022-09-01T05:38:09;7.75;;;2.50;;
33413;SDS011;60055;41.884;12.534;2022-09-01T05:40:41;7.85;;;2.30;;
33413;SDS011;60055;41.884;12.534;2022-09-01T05:43:11;4.97;;;2.65;;
33413;SDS011;60055;41.884;12.534;2022-09-01T05:45:42;8.63;;;2.70;;
33413;SDS011;60055;41.884;12.534;2022-09-01T05:48:09;7.45;;;2.70;;
33413;SDS011;60055;41.884;12.534;2022-09-01T05:50:38;8.18;;;2.33;;
33413;SDS011;60055;41.884;12.534;2022-09-01T05:53:07;10.32;;;3.55;;
33413;SDS011;60055;41.884;12.534;2022-09-01T05:55:40;5.88;;;2.67;;
33413;SDS011;60055;41.884;12.534;2022-09-01T05:58:08;11.10;;;3.50;;
33413;SDS011;60055;41.884;12.534;2022-09-01T06:00:44;7.32;;;2.83;;
33413;SDS011;60055;41.884;12.534;2022-09-01T06:03:13;6.97;;;2.25;;
33413;SDS011;60055;41.884;12.534;2022-09-01T06:05:41;4.78;;;1.90;;
33413;SDS011;60055;41.884;12.534;2022-09-01T06:08:16;6.45;;;2.95;;
33413;SDS011;60055;41.884;12.534;2022-09-01T06:10:44;6.53;;;2.03;;
33413;SDS011;60055;41.884;12.534;2022-09-01T06:13:10;7.47;;;2.22;;
33413;SDS011;60055;41.884;12.534;2022-09-01T06:15:40;6.07;;;2.08;;
33413;SDS011;60055;41.884;12.534;2022-09-01T06:18:07;5.53;;;2.50;;
33413;SDS011;60055;41.884;12.534;2022-09-01T06:20:43;6.90;;;2.10;;
33413;SDS011;60055;41.884;12.534;2022-09-01T06:23:11;6.80;;;2.10;;
33413;SDS011;60055;41.884;12.534;2022-09-01T06:25:40;4.72;;;1.92;;
33413;SDS011;60055;41.884;12.534;2022-09-01T06:28:09;7.35;;;2.17;;
33413;SDS011;60055;41.884;12.534;2022-09-01T06:30:36;10.70;;;2.83;;
33413;SDS011;60055;41.884;12.534;2022-09-01T06:33:03;10.63;;;2.70;;
33413;SDS011;60055;41.884;12.534;2022-09-01T06:35:33;11.30;;;2.60;;
33413;SDS011;60055;41.884;12.534;2022-09-01T06:37:59;6.78;;;2.60;;
33413;SDS011;60055;41.884;12.534;2022-09-01T06:40:26;8.68;;;2.70;;
33413;SDS011;60055;41.884;12.534;2022-09-01T06:42:52;7.82;;;2.35;;
33413;SDS011;60055;41.884;12.534;2022-09-01T06:45:19;8.02;;;2.47;;
33413;SDS011;60055;41.884;12.534;2022-09-01T06:47:47;9.85;;;2.00;;
33413;SDS011;60055;41.884;12.534;2022-09-01T06:50:15;10.82;;;2.42;;
33413;SDS011;60055;41.884;12.534;2022-09-01T06:52:43;8.95;;;2.38;;
33413;SDS011;60055;41.884;12.534;2022-09-01T06:55:10;7.85;;;2.50;;
33413;SDS011;60055;41.884;12.534;2022-09-01T06:57:38;8.98;;;2.40;;
33413;SDS011;60055;41.884;12.534;2022-09-01T07:00:16;7.18;;;1.95;;
33413;SDS011;60055;41.884;12.534;2022-09-01T07:02:45;9.73;;;2.03;;
33413;SDS011;60055;41.884;12.534;2022-09-01T07:05:13;7.47;;;2.10;;
33413;SDS011;60055;41.884;12.534;2022-09-01T07:07:50;9.13;;;2.28;;
33413;SDS011;60055;41.884;12.534;2022-09-01T07:10:19;7.80;;;2.13;;
33413;SDS011;60055;41.884;12.534;2022-09-01T07:12:54;6.32;;;2.50;;
33413;SDS011;60055;41.884;12.534;2022-09-01T07:15:22;5.55;;;2.08;;
33413;SDS011;60055;41.884;12.534;2022-09-01T07:17:49;7.82;;;2.67;;
33413;SDS011;60055;41.884;12.534;2022-09-01T07:20:22;8.45;;;2.75;;
33413;SDS011;60055;41.884;12.534;2022-09-01T07:22:50;8.25;;;3.00;;
33413;SDS011;60055;41.884;12.534;2022-09-01T07:25:17;9.35;;;2.70;;
33413;SDS011;60055;41.884;12.534;2022-09-01T07:27:43;5.32;;;2.25;;
33413;SDS011;60055;41.884;12.534;2022-09-01T07:30:18;9.30;;;3.15;;
33413;SDS011;60055;41.884;12.534;2022-09-01T07:32:45;8.20;;;2.53;;
33413;SDS011;60055;41.884;12.534;2022-09-01T07:35:12;6.57;;;2.50;;
33413;SDS011;60055;41.884;12.534;2022-09-01T07:37:40;7.10;;;3.00;;
33413;SDS011;60055;41.884;12.534;2022-09-01T07:40:08;9.32;;;2.88;;
33413;SDS011;60055;41.884;12.534;2022-09-01T07:42:35;8.40;;;2.45;;
33413;SDS011;60055;41.884;12.534;2022-09-01T07:45:04;6.32;;;2.72;;
33413;SDS011;60055;41.884;12.534;2022-09-01T07:47:35;8.43;;;2.70;;
33413;SDS011;60055;41.884;12.534;2022-09-01T07:50:04;9.32;;;2.97;;
33413;SDS011;60055;41.884;12.534;2022-09-01T07:52:36;9.68;;;2.92;;
33413;SDS011;60055;41.884;12.534;2022-09-01T07:55:07;7.25;;;3.00;;
33413;SDS011;60055;41.884;12.534;2022-09-01T07:57:36;11.15;;;2.90;;
33413;SDS011;60055;41.884;12.534;2022-09-01T08:00:06;7.40;;;2.58;;
33413;SDS011;60055;41.884;12.534;2022-09-01T08:02:33;7.13;;;2.60;;
33413;SDS011;60055;41.884;12.534;2022-09-01T08:05:00;9.35;;;2.88;;
33413;SDS011;60055;41.884;12.534;2022-09-01T08:07:26;10.05;;;3.00;;
33413;SDS011;60055;41.884;12.534;2022-09-01T08:09:51;9.10;;;2.80;;
33413;SDS011;60055;41.884;12.534;2022-09-01T08:12:17;9.50;;;2.63;;
33413;SDS011;60055;41.884;12.534;2022-09-01T08:14:43;7.53;;;2.80;;
33413;SDS011;60055;41.884;12.534;2022-09-01T08:17:09;5.60;;;2.60;;
33413;SDS011;60055;41.884;12.534;2022-09-01T08:19:35;7.03;;;2.28;;
33413;SDS011;60055;41.884;12.534;2022-09-01T08:22:00;9.68;;;2.60;;
33413;SDS011;60055;41.884;12.534;2022-09-01T08:24:26;5.88;;;2.53;;
33413;SDS011;60055;41.884;12.534;2022-09-01T08:26:52;8.98;;;2.60;;
33413;SDS011;60055;41.884;12.534;2022-09-01T08:29:17;6.78;;;2.30;;
33413;SDS011;60055;41.884;12.534;2022-09-01T08:31:45;10.73;;;2.50;;
33413;SDS011;60055;41.884;12.534;2022-09-01T08:34:10;6.90;;;2.28;;
33413;SDS011;60055;41.884;12.534;2022-09-01T08:36:36;7.78;;;4.53;;
33413;SDS011;60055;41.884;12.534;2022-09-01T08:39:02;8.75;;;3.40;;
33413;SDS011;60055;41.884;12.534;2022-09-01T08:46:57;10.52;;;3.20;;
33413;SDS011;60055;41.884;12.534;2022-09-01T08:49:27;7.32;;;2.70;;
33413;SDS011;60055;41.884;12.534;2022-09-01T08:51:57;10.10;;;2.58;;
33413;SDS011;60055;41.884;12.534;2022-09-01T08:57:33;6.78;;;2.45;;
33413;SDS011;60055;41.884;12.534;2022-09-01T09:00:05;8.43;;;2.50;;
33413;SDS011;60055;41.884;12.534;2022-09-01T09:21:40;7.00;;;2.40;;
33413;SDS011;60055;41.884;12.534;2022-09-01T09:26:50;6.38;;;2.35;;
33413;SDS011;60055;41.884;12.534;2022-09-01T09:29:17;9.88;;;2.30;;
33413;SDS011;60055;41.884;12.534;2022-09-01T09:31:44;7.72;;;2.20;;
33413;SDS011;60055;41.884;12.534;2022-09-01T09:37:01;15.02;;;2.90;;
33413;SDS011;60055;41.884;12.534;2022-09-01T09:39:44;9.75;;;2.53;;
33413;SDS011;60055;41.884;12.534;2022-09-01T09:42:25;8.13;;;2.45;;
33413;SDS011;60055;41.884;12.534;2022-09-01T09:44:52;7.70;;;2.42;;
33413;SDS011;60055;41.884;12.534;2022-09-01T09:47:33;10.98;;;2.40;;
33413;SDS011;60055;41.884;12.534;2022-09-01T09:52:49;10.63;;;2.45;;
33413;SDS011;60055;41.884;12.534;2022-09-01T09:57:45;5.72;;;2.00;;
33413;SDS011;60055;41.884;12.534;2022-09-01T10:00:24;7.40;;;2.40;;
33413;SDS011;60055;41.884;12.534;2022-09-01T10:03:12;12.10;;;2.22;;
33413;SDS011;60055;41.884;12.534;2022-09-01T10:08:09;5.25;;;2.00;;
33413;SDS011;60055;41.884;12.534;2022-09-01T10:10:59;5.65;;;2.33;;
33413;SDS011;60055;41.884;12.534;2022-09-01T10:13:24;4.38;;;2.10;;
33413;SDS011;60055;41.884;12.534;2022-09-01T10:15:55;5.28;;;1.70;;
33413;SDS011;60055;41.884;12.534;2022-09-01T10:18:31;8.30;;;2.00;;
33413;SDS011;60055;41.884;12.534;2022-09-01T10:21:04;6.60;;;1.50;;
33413;SDS011;60055;41.884;12.534;2022-09-01T10:23:36;5.82;;;1.83;;
33413;SDS011;60055;41.884;12.534;2022-09-01T10:26:09;8.75;;;1.80;;
33413;SDS011;60055;41.884;12.534;2022-09-01T10:28:46;6.82;;;2.00;;
33413;SDS011;60055;41.884;12.534;2022-09-01T10:31:15;9.45;;;2.10;;
33413;SDS011;60055;41.884;12.534;2022-09-01T10:33:41;5.43;;;1.85;;
33413;SDS011;60055;41.884;12.534;2022-09-01T10:36:08;7.22;;;1.70;;
33413;SDS011;60055;41.884;12.534;2022-09-01T10:38:34;4.50;;;1.92;;
33413;SDS011;60055;41.884;12.534;2022-09-01T10:40:59;7.82;;;2.15;;
33413;SDS011;60055;41.884;12.534;2022-09-01T10:48:45;7.43;;;1.75;;
33413;SDS011;60055;41.884;12.534;2022-09-01T10:53:43;7.72;;;2.00;;
33413;SDS011;60055;41.884;12.534;2022-09-01T10:56:55;10.15;;;2.85;;
33413;SDS011;60055;41.884;12.534;2022-09-01T11:09:25;6.60;;;2.00;;
33413;SDS011;60055;41.884;12.534;2022-09-01T11:12:14;7.32;;;2.17;;
33413;SDS011;60055;41.884;12.534;2022-09-01T11:17:15;8.63;;;2.08;;
33413;SDS011;60055;41.884;12.534;2022-09-01T11:20:38;8.32;;;1.75;;
33413;SDS011;60055;41.884;12.534;2022-09-01T11:25:47;4.10;;;1.90;;
33413;SDS011;60055;41.884;12.534;2022-09-01T11:30:55;8.05;;;1.98;;
33413;SDS011;60055;41.884;12.534;2022-09-01T11:44:41;6.32;;;1.90;;
33413;SDS011;60055;41.884;12.534;2022-09-01T11:47:31;10.68;;;1.73;;
33413;SDS011;60055;41.884;12.534;2022-09-01T11:50:26;4.28;;;1.30;;
33413;SDS011;60055;41.884;12.534;2022-09-01T11:52:58;6.55;;;1.52;;
33413;SDS011;60055;41.884;12.534;2022-09-01T11:55:31;3.67;;;1.38;;
33413;SDS011;60055;41.884;12.534;2022-09-01T11:58:01;5.68;;;1.63;;
33413;SDS011;60055;41.884;12.534;2022-09-01T12:00:34;5.25;;;1.65;;
33413;SDS011;60055;41.884;12.534;2022-09-01T12:03:05;5.43;;;1.45;;
33413;SDS011;60055;41.884;12.534;2022-09-01T12:05:51;11.15;;;1.85;;
33413;SDS011;60055;41.884;12.534;2022-09-01T12:08:24;8.95;;;1.60;;
33413;SDS011;60055;41.884;12.534;2022-09-01T12:13:34;4.25;;;1.30;;
33413;SDS011;60055;41.884;12.534;2022-09-01T12:16:02;7.07;;;1.63;;
33413;SDS011;60055;41.884;12.534;2022-09-01T12:18:32;8.65;;;1.70;;
33413;SDS011;60055;41.884;12.534;2022-09-01T12:21:00;4.20;;;1.40;;
33413;SDS011;60055;41.884;12.534;2022-09-01T12:23:32;6.05;;;1.27;;
33413;SDS011;60055;41.884;12.534;2022-09-01T12:26:10;5.72;;;1.25;;
33413;SDS011;60055;41.884;12.534;2022-09-01T12:28:39;3.40;;;1.45;;
33413;SDS011;60055;41.884;12.534;2022-09-01T12:31:06;4.68;;;1.00;;
33413;SDS011;60055;41.884;12.534;2022-09-01T12:33:36;2.97;;;1.42;;
33413;SDS011;60055;41.884;12.534;2022-09-01T12:41:46;6.50;;;1.25;;
33413;SDS011;60055;41.884;12.534;2022-09-01T12:47:06;4.05;;;1.30;;
33413;SDS011;60055;41.884;12.534;2022-09-01T12:52:26;5.75;;;1.58;;
33413;SDS011;60055;41.884;12.534;2022-09-01T13:02:47;3.60;;;1.27;;
33413;SDS011;60055;41.884;12.534;2022-09-01T13:05:32;4.22;;;1.30;;
33413;SDS011;60055;41.884;12.534;2022-09-01T13:08:11;2.20;;;1.10;;
33413;SDS011;60055;41.884;12.534;2022-09-01T13:10:43;2.72;;;1.00;;
33413;SDS011;60055;41.884;12.534;2022-09-01T13:13:11;3.22;;;1.10;;
33413;SDS011;60055;41.884;12.534;2022-09-01T13:15:38;3.88;;;1.20;;
33413;SDS011;60055;41.884;12.534;2022-09-01T13:18:07;2.92;;;1.08;;
33413;SDS011;60055;41.884;12.534;2022-09-01T13:20:33;5.63;;;1.00;;
33413;SDS011;60055;41.884;12.534;2022-09-01T13:22:59;2.70;;;0.70;;
33413;SDS011;60055;41.884;12.534;2022-09-01T13:25:25;2.97;;;0.90;;
33413;SDS011;60055;41.884;12.534;2022-09-01T13:27:51;4.07;;;0.85;;
33413;SDS011;60055;41.884;12.534;2022-09-01T13:30:19;3.25;;;0.90;;
33413;SDS011;60055;41.884;12.534;2022-09-01T13:32:47;5.93;;;1.08;;
33413;SDS011;60055;41.884;12.534;2022-09-01T13:35:15;3.75;;;1.10;;
33413;SDS011;60055;41.884;12.534;2022-09-01T13:37:44;2.05;;;0.90;;
33413;SDS011;60055;41.884;12.534;2022-09-01T13:40:10;2.58;;;1.00;;
33413;SDS011;60055;41.884;12.534;2022-09-01T13:42:39;3.63;;;1.00;;
33413;SDS011;60055;41.884;12.534;2022-09-01T13:45:09;4.35;;;1.10;;
33413;SDS011;60055;41.884;12.534;2022-09-01T13:47:37;6.13;;;1.40;;
33413;SDS011;60055;41.884;12.534;2022-09-01T13:50:04;3.75;;;1.20;;
33413;SDS011;60055;41.884;12.534;2022-09-01T13:52:30;6.50;;;1.15;;
33413;SDS011;60055;41.884;12.534;2022-09-01T13:54:56;4.97;;;1.05;;
33413;SDS011;60055;41.884;12.534;2022-09-01T13:57:22;3.45;;;1.75;;
33413;SDS011;60055;41.884;12.534;2022-09-01T13:59:48;4.47;;;1.42;;
33413;SDS011;60055;41.884;12.534;2022-09-01T14:02:14;3.95;;;1.50;;
33413;SDS011;60055;41.884;12.534;2022-09-01T14:04:40;4.50;;;1.90;;
33413;SDS011;60055;41.884;12.534;2022-09-01T14:07:06;4.03;;;1.40;;
33413;SDS011;60055;41.884;12.534;2022-09-01T14:09:31;3.88;;;1.35;;
33413;SDS011;60055;41.884;12.534;2022-09-01T14:11:58;4.90;;;1.50;;
33413;SDS011;60055;41.884;12.534;2022-09-01T14:14:23;4.95;;;2.28;;
33413;SDS011;60055;41.884;12.534;2022-09-01T14:16:49;7.80;;;1.65;;
33413;SDS011;60055;41.884;12.534;2022-09-01T14:19:15;5.90;;;1.77;;
33413;SDS011;60055;41.884;12.534;2022-09-01T14:21:41;4.93;;;1.40;;
33413;SDS011;60055;41.884;12.534;2022-09-01T14:24:08;5.35;;;1.80;;
33413;SDS011;60055;41.884;12.534;2022-09-01T14:26:34;6.38;;;1.50;;
33413;SDS011;60055;41.884;12.534;2022-09-01T14:29:00;4.53;;;1.40;;
33413;SDS011;60055;41.884;12.534;2022-09-01T14:31:27;3.35;;;1.40;;
33413;SDS011;60055;41.884;12.534;2022-09-01T14:33:56;7.07;;;1.73;;
33413;SDS011;60055;41.884;12.534;2022-09-01T14:36:22;5.25;;;1.70;;
33413;SDS011;60055;41.884;12.534;2022-09-01T14:38:50;4.13;;;1.90;;
33413;SDS011;60055;41.884;12.534;2022-09-01T14:41:17;4.25;;;1.83;;
33413;SDS011;60055;41.884;12.534;2022-09-01T14:43:45;9.55;;;1.98;;
33413;SDS011;60055;41.884;12.534;2022-09-01T14:46:11;8.48;;;2.17;;
33413;SDS011;60055;41.884;12.534;2022-09-01T14:48:38;6.45;;;1.80;;
33413;SDS011;60055;41.884;12.534;2022-09-01T14:51:04;6.53;;;1.70;;
33413;SDS011;60055;41.884;12.534;2022-09-01T14:53:31;6.93;;;2.20;;
33413;SDS011;60055;41.884;12.534;2022-09-01T14:55:58;3.67;;;1.58;;
33413;SDS011;60055;41.884;12.534;2022-09-01T14:58:25;6.80;;;2.67;;
33413;SDS011;60055;41.884;12.534;2022-09-01T15:00:53;7.43;;;3.95;;
33413;SDS011;60055;41.884;12.534;2022-09-01T15:03:20;7.68;;;2.10;;
33413;SDS011;60055;41.884;12.534;2022-09-01T15:05:47;4.35;;;2.05;;
33413;SDS011;60055;41.884;12.534;2022-09-01T15:08:14;7.72;;;2.08;;
33413;SDS011;60055;41.884;12.534;2022-09-01T15:10:40;6.65;;;1.85;;
33413;SDS011;60055;41.884;12.534;2022-09-01T15:13:05;4.45;;;1.73;;
33413;SDS011;60055;41.884;12.534;2022-09-01T15:15:32;5.05;;;1.80;;
33413;SDS011;60055;41.884;12.534;2022-09-01T15:17:58;5.60;;;1.70;;
33413;SDS011;60055;41.884;12.534;2022-09-01T15:20:24;4.10;;;1.60;;
33413;SDS011;60055;41.884;12.534;2022-09-01T15:23:09;6.50;;;1.83;;
33413;SDS011;60055;41.884;12.534;2022-09-01T15:25:36;5.72;;;1.70;;
33413;SDS011;60055;41.884;12.534;2022-09-01T15:28:02;5.18;;;1.70;;
33413;SDS011;60055;41.884;12.534;2022-09-01T15:30:28;6.90;;;1.50;;
33413;SDS011;60055;41.884;12.534;2022-09-01T15:32:54;5.50;;;1.30;;
33413;SDS011;60055;41.884;12.534;2022-09-01T15:35:20;4.88;;;1.27;;
33413;SDS011;60055;41.884;12.534;2022-09-01T15:37:47;6.32;;;1.95;;
33413;SDS011;60055;41.884;12.534;2022-09-01T15:40:15;6.78;;;1.25;;
33413;SDS011;60055;41.884;12.534;2022-09-01T15:42:41;3.75;;;1.30;;
33413;SDS011;60055;41.884;12.534;2022-09-01T15:45:09;3.60;;;1.30;;
33413;SDS011;60055;41.884;12.534;2022-09-01T15:47:38;2.63;;;1.25;;
33413;SDS011;60055;41.884;12.534;2022-09-01T15:50:05;2.20;;;1.10;;
33413;SDS011;60055;41.884;12.534;2022-09-01T15:52:32;4.10;;;1.20;;
33413;SDS011;60055;41.884;12.534;2022-09-01T15:54:58;1.95;;;1.00;;
33413;SDS011;60055;41.884;12.534;2022-09-01T15:57:24;4.57;;;1.10;;
33413;SDS011;60055;41.884;12.534;2022-09-01T15:59:51;2.45;;;1.20;;
33413;SDS011;60055;41.884;12.534;2022-09-01T16:02:17;4.18;;;1.20;;
33413;SDS011;60055;41.884;12.534;2022-09-01T16:04:47;5.90;;;1.27;;
33413;SDS011;60055;41.884;12.534;2022-09-01T16:07:13;4.85;;;1.50;;
33413;SDS011;60055;41.884;12.534;2022-09-01T16:09:38;3.35;;;1.50;;
33413;SDS011;60055;41.884;12.534;2022-09-01T16:12:04;3.85;;;1.40;;
33413;SDS011;60055;41.884;12.534;2022-09-01T16:14:31;6.50;;;2.35;;
33413;SDS011;60055;41.884;12.534;2022-09-01T16:17:02;7.82;;;4.57;;
33413;SDS011;60055;41.884;12.534;2022-09-01T16:22:29;3.60;;;1.60;;
33413;SDS011;60055;41.884;12.534;2022-09-01T16:24:58;3.15;;;1.20;;
33413;SDS011;60055;41.884;12.534;2022-09-01T16:27:32;5.72;;;1.13;;
33413;SDS011;60055;41.884;12.534;2022-09-01T16:30:13;3.05;;;1.20;;